createdAt,value
2022-08-26T00:02:56.080Z,22.90
2022-08-26T00:06:04.278Z,22.92
2022-08-26T00:09:12.377Z,22.90
2022-08-26T00:12:20.252Z,22.90
2022-08-26T00:15:25.789Z,22.89
2022-08-26T00:18:38.574Z,22.90
2022-08-26T00:21:37.744Z,22.90
2022-08-26T00:24:47.831Z,22.92
2022-08-26T00:27:55.810Z,22.93
2022-08-26T00:31:03.679Z,22.90
2022-08-26T00:34:11.227Z,22.87
2022-08-26T00:37:20.431Z,22.83
2022-08-26T00:40:28.486Z,22.77
2022-08-26T00:43:46.444Z,22.71
2022-08-26T00:46:46.436Z,22.64
2022-08-26T00:49:43.852Z,22.56
2022-08-26T00:52:52.278Z,22.53
2022-08-26T00:55:59.900Z,22.47
2022-08-26T00:59:08.064Z,22.43
2022-08-26T01:02:20.302Z,22.35
2022-08-26T01:05:18.311Z,22.29
2022-08-26T01:08:26.682Z,22.28
2022-08-26T01:11:35.644Z,22.23
2022-08-26T01:14:43.476Z,22.14
2022-08-26T01:17:43.995Z,22.07
2022-08-26T01:20:51.975Z,22.04
2022-08-26T01:23:57.446Z,21.99
2022-08-26T01:26:55.022Z,21.97
2022-08-26T01:30:03.112Z,21.91
2022-08-26T01:33:11.076Z,21.81
2022-08-26T01:36:19.214Z,21.74
2022-08-26T01:39:28.725Z,21.69
2022-08-26T01:42:36.655Z,21.61
2022-08-26T01:45:44.676Z,21.53
2022-08-26T01:48:54.433Z,21.44
2022-08-26T01:52:02.491Z,21.36
2022-08-26T01:55:11.377Z,21.38
2022-08-26T01:58:19.302Z,21.41
2022-08-26T02:01:29.201Z,21.34
2022-08-26T02:04:37.797Z,21.27
2022-08-26T02:07:45.629Z,21.21
2022-08-26T02:10:54.773Z,21.20
2022-08-26T02:14:03.369Z,21.24
2022-08-26T02:17:11.015Z,21.24
2022-08-26T02:20:19.516Z,21.20
2022-08-26T02:23:28.115Z,21.11
2022-08-26T02:26:35.834Z,21.08
2022-08-26T02:29:44.991Z,21.09
2022-08-26T02:32:53.006Z,21.13
2022-08-26T02:36:00.901Z,21.16
2022-08-26T02:39:09.285Z,21.19
2022-08-26T02:42:17.316Z,21.20
2022-08-26T02:45:25.128Z,21.20
2022-08-26T02:48:33.008Z,21.16
2022-08-26T02:51:41.088Z,21.14
2022-08-26T02:54:51.099Z,21.13
2022-08-26T02:57:59.046Z,21.11
2022-08-26T03:01:07.483Z,21.13
2022-08-26T03:04:15.522Z,21.06
2022-08-26T03:07:24.053Z,20.98
2022-08-26T03:10:32.551Z,20.89
2022-08-26T03:13:40.362Z,20.83
2022-08-26T03:16:48.704Z,20.79
2022-08-26T03:19:56.999Z,20.71
2022-08-26T03:23:05.302Z,20.50
2022-08-26T03:26:13.786Z,20.27
2022-08-26T03:29:21.663Z,20.13
2022-08-26T03:32:29.453Z,19.93
2022-08-26T03:35:38.268Z,19.76
2022-08-26T03:38:47.526Z,19.68
2022-08-26T03:41:55.522Z,19.63
2022-08-26T03:45:03.107Z,19.63
2022-08-26T03:48:10.971Z,19.65
2022-08-26T03:51:18.567Z,19.63
2022-08-26T03:54:27.220Z,19.63
2022-08-26T03:57:35.130Z,19.58
2022-08-26T04:00:43.257Z,19.55
2022-08-26T04:03:51.758Z,19.54
2022-08-26T04:06:59.933Z,19.54
2022-08-26T04:10:07.807Z,19.53
2022-08-26T04:13:18.100Z,19.51
2022-08-26T04:16:26.086Z,19.54
2022-08-26T04:19:35.764Z,19.63
2022-08-26T04:22:43.843Z,19.68
2022-08-26T04:25:51.916Z,19.84
2022-08-26T04:28:59.348Z,19.97
2022-08-26T04:32:07.763Z,20.10
2022-08-26T04:35:15.517Z,20.16
2022-08-26T04:38:24.378Z,20.21
2022-08-26T04:41:32.903Z,20.20
2022-08-26T04:44:40.714Z,20.15
2022-08-26T04:47:48.639Z,20.05
2022-08-26T04:50:57.373Z,19.97
2022-08-26T04:53:58.024Z,19.94
2022-08-26T04:57:06.524Z,20.02
2022-08-26T05:00:15.217Z,20.09
2022-08-26T05:03:22.686Z,20.13
2022-08-26T05:06:30.868Z,20.12
2022-08-26T05:09:34.090Z,20.13
2022-08-26T05:12:41.840Z,20.21
2022-08-26T05:15:52.099Z,20.31
2022-08-26T05:19:00.090Z,20.35
2022-08-26T05:22:07.842Z,20.46
2022-08-26T05:25:15.771Z,20.46
2022-08-26T05:28:23.556Z,20.43
2022-08-26T05:31:31.809Z,20.51
2022-08-26T05:34:39.509Z,20.68
2022-08-26T05:37:39.919Z,20.89
2022-08-26T05:40:47.578Z,21.08
2022-08-26T05:43:55.849Z,21.29
2022-08-26T05:47:03.791Z,21.60
2022-08-26T05:50:11.693Z,21.94
2022-08-26T05:53:20.094Z,22.23
2022-08-26T05:56:27.995Z,22.52
2022-08-26T05:59:36.294Z,22.77
2022-08-26T06:02:36.379Z,22.94
2022-08-26T06:05:44.083Z,23.17
2022-08-26T06:08:52.842Z,23.34
2022-08-26T06:12:00.449Z,23.47
2022-08-26T06:15:09.036Z,23.60
2022-08-26T06:18:17.335Z,23.75
2022-08-26T06:21:25.103Z,23.82
2022-08-26T06:24:33.315Z,23.87
2022-08-26T06:27:42.214Z,23.97
2022-08-26T06:30:49.743Z,24.10
2022-08-26T06:33:58.390Z,24.12
2022-08-26T06:37:06.683Z,24.23
2022-08-26T06:40:14.610Z,24.23
2022-08-26T06:43:23.259Z,24.23
2022-08-26T06:46:31.000Z,24.31
2022-08-26T06:49:38.836Z,24.45
2022-08-26T06:52:47.657Z,24.57
2022-08-26T06:55:56.612Z,24.77
2022-08-26T06:59:04.558Z,24.88
2022-08-26T07:02:04.508Z,25.00
2022-08-26T07:05:12.915Z,25.13
2022-08-26T07:08:20.771Z,25.17
2022-08-26T07:11:28.641Z,25.24
2022-08-26T07:14:38.304Z,25.30
2022-08-26T07:17:45.812Z,25.35
2022-08-26T07:20:54.145Z,25.47
2022-08-26T07:24:02.529Z,25.65
2022-08-26T07:27:10.191Z,25.80
2022-08-26T07:30:18.460Z,25.89
2022-08-26T07:33:26.381Z,26.04
2022-08-26T07:36:34.868Z,26.25
2022-08-26T07:39:43.617Z,26.37
2022-08-26T07:42:51.454Z,26.55
2022-08-26T07:46:00.400Z,26.80
2022-08-26T07:49:08.863Z,26.80
2022-08-26T07:52:16.265Z,26.95
2022-08-26T07:55:24.779Z,27.20
2022-08-26T07:58:32.663Z,27.38
2022-08-26T08:01:40.555Z,27.53
2022-08-26T08:04:42.498Z,27.62
2022-08-26T08:07:53.601Z,27.73
2022-08-26T08:10:55.378Z,27.86
2022-08-26T08:14:03.147Z,28.01
2022-08-26T08:17:06.113Z,28.19
2022-08-26T08:20:14.551Z,28.33
2022-08-26T08:23:22.427Z,28.50
2022-08-26T08:26:32.195Z,28.70
2022-08-26T08:29:40.317Z,28.97
2022-08-26T08:32:48.687Z,29.16
2022-08-26T08:35:56.751Z,29.26
2022-08-26T08:39:04.332Z,29.35
2022-08-26T08:42:14.772Z,29.40
2022-08-26T08:45:22.574Z,29.38
2022-08-26T08:48:30.148Z,29.38
2022-08-26T08:51:38.547Z,29.44
2022-08-26T08:54:46.090Z,29.55
2022-08-26T08:57:54.481Z,29.62
2022-08-26T09:01:02.796Z,29.63
2022-08-26T09:04:10.282Z,29.56
2022-08-26T09:07:19.305Z,29.43
2022-08-26T09:10:29.118Z,29.19
2022-08-26T09:13:37.096Z,29.11
2022-08-26T09:16:45.152Z,28.82
2022-08-26T09:19:52.758Z,28.81
2022-08-26T09:23:00.574Z,28.82
2022-08-26T09:26:09.185Z,28.72
2022-08-26T09:29:17.669Z,28.68
2022-08-26T09:32:26.141Z,28.50
2022-08-26T09:35:33.757Z,28.26
2022-08-26T09:38:41.891Z,28.03
2022-08-26T09:41:50.076Z,28.03
2022-08-26T09:44:58.069Z,28.06
2022-08-26T09:48:06.424Z,28.06
2022-08-26T09:51:14.484Z,28.10
2022-08-26T09:54:23.097Z,28.11
2022-08-26T09:57:27.793Z,28.13
2022-08-26T10:00:38.518Z,28.14
2022-08-26T10:03:47.003Z,28.13
2022-08-26T10:06:55.419Z,28.16
2022-08-26T10:10:02.791Z,28.25
2022-08-26T10:13:11.344Z,28.25
2022-08-26T10:16:19.140Z,28.31
2022-08-26T10:19:37.912Z,28.38
2022-08-26T10:22:32.966Z,28.41
2022-08-26T10:25:40.927Z,28.36
2022-08-26T10:28:49.219Z,28.43
2022-08-26T10:32:02.583Z,28.51
2022-08-26T10:35:00.433Z,28.63
2022-08-26T10:38:08.769Z,28.70
2022-08-26T10:41:18.067Z,28.69
2022-08-26T10:44:25.985Z,28.75
2022-08-26T10:47:33.752Z,28.85
2022-08-26T10:50:41.587Z,28.87
2022-08-26T10:53:51.455Z,28.95
2022-08-26T10:56:59.407Z,29.13
2022-08-26T11:00:06.964Z,29.15
2022-08-26T11:03:22.103Z,29.06
2022-08-26T11:06:18.864Z,29.01
2022-08-26T11:09:28.869Z,28.97
2022-08-26T11:12:37.193Z,29.07
2022-08-26T11:15:44.802Z,29.16
2022-08-26T11:18:53.261Z,29.13
2022-08-26T11:22:01.253Z,29.20
2022-08-26T11:25:11.441Z,29.26
2022-08-26T11:28:20.188Z,29.16
2022-08-26T11:31:28.746Z,29.18
2022-08-26T11:34:29.230Z,29.15
2022-08-26T11:37:37.649Z,29.18
2022-08-26T11:40:38.054Z,29.23
2022-08-26T11:43:46.268Z,29.19
2022-08-26T11:46:54.484Z,29.11
2022-08-26T11:50:02.298Z,29.08
2022-08-26T11:53:10.185Z,29.06
2022-08-26T11:56:18.086Z,29.06
2022-08-26T11:59:29.195Z,29.10
2022-08-26T12:02:38.665Z,29.22
2022-08-26T12:05:47.061Z,29.33
2022-08-26T12:08:55.005Z,29.20
2022-08-26T12:12:03.217Z,29.28
2022-08-26T12:15:12.263Z,29.56
2022-08-26T12:18:28.579Z,29.79
2022-08-26T12:21:25.500Z,30.05
2022-08-26T12:24:33.798Z,30.24
2022-08-26T12:27:42.227Z,30.40
2022-08-26T12:30:50.065Z,30.56
2022-08-26T12:33:59.093Z,30.56
2022-08-26T12:37:07.273Z,30.84
2022-08-26T12:40:15.362Z,31.11
2022-08-26T12:43:23.740Z,31.50
2022-08-26T12:46:31.229Z,31.91
2022-08-26T12:49:39.450Z,32.20
2022-08-26T12:52:47.226Z,32.42
2022-08-26T12:55:55.131Z,32.14
2022-08-26T12:59:03.280Z,32.22
2022-08-26T13:02:11.573Z,32.49
2022-08-26T13:05:19.609Z,32.39
2022-08-26T13:08:27.684Z,32.25
2022-08-26T13:11:35.881Z,32.15
2022-08-26T13:14:43.823Z,32.21
2022-08-26T13:17:51.722Z,32.30
2022-08-26T13:20:59.588Z,31.98
2022-08-26T13:24:08.186Z,32.00
2022-08-26T13:27:16.029Z,31.80
2022-08-26T13:30:23.881Z,31.73
2022-08-26T13:33:32.132Z,31.60
2022-08-26T13:36:40.453Z,31.72
2022-08-26T13:39:48.551Z,31.61
2022-08-26T13:42:56.576Z,31.53
2022-08-26T13:46:05.017Z,31.42
2022-08-26T13:49:12.548Z,31.33
2022-08-26T13:52:29.133Z,31.13
2022-08-26T13:55:26.182Z,30.91
2022-08-26T13:58:33.649Z,30.74
2022-08-26T14:01:41.844Z,30.12
2022-08-26T14:04:49.737Z,29.99
2022-08-26T14:07:57.679Z,29.82
2022-08-26T14:11:06.242Z,29.71
2022-08-26T14:14:14.003Z,29.74
2022-08-26T14:17:21.911Z,29.53
2022-08-26T14:20:30.144Z,29.47
2022-08-26T14:23:38.044Z,29.50
2022-08-26T14:26:45.850Z,29.52
2022-08-26T14:29:53.918Z,29.50
2022-08-26T14:33:02.048Z,29.63
2022-08-26T14:36:10.229Z,29.77
2022-08-26T14:39:18.722Z,29.84
2022-08-26T14:42:27.542Z,29.92
2022-08-26T14:45:29.376Z,29.92
2022-08-26T14:48:37.333Z,29.75
2022-08-26T14:51:45.538Z,29.74
2022-08-26T14:54:55.028Z,29.86
2022-08-26T14:58:02.919Z,29.90
2022-08-26T15:01:11.120Z,30.08
2022-08-26T15:04:19.102Z,30.15
2022-08-26T15:07:27.613Z,30.46
2022-08-26T15:10:35.721Z,30.43
2022-08-26T15:13:43.343Z,30.62
2022-08-26T15:16:51.092Z,30.71
2022-08-26T15:19:59.034Z,30.61
2022-08-26T15:23:06.410Z,30.33
2022-08-26T15:26:14.799Z,30.00
2022-08-26T15:29:22.915Z,29.84
2022-08-26T15:32:31.074Z,29.84
2022-08-26T15:35:40.394Z,29.92
2022-08-26T15:38:39.859Z,29.70
2022-08-26T15:41:48.330Z,29.74
2022-08-26T15:44:56.531Z,29.75
2022-08-26T15:48:04.054Z,29.47
2022-08-26T15:51:12.153Z,29.23
2022-08-26T15:54:20.034Z,28.96
2022-08-26T15:57:27.926Z,28.66
2022-08-26T16:00:35.734Z,28.07
2022-08-26T16:03:43.189Z,27.42
2022-08-26T16:06:51.320Z,26.96
2022-08-26T16:09:59.554Z,26.87
2022-08-26T16:13:09.358Z,26.62
2022-08-26T16:16:09.141Z,26.24
2022-08-26T16:19:16.805Z,26.08
2022-08-26T16:22:24.616Z,26.01
2022-08-26T16:25:26.138Z,25.59
2022-08-26T16:28:33.619Z,25.34
2022-08-26T16:31:41.943Z,25.15
2022-08-26T16:34:50.291Z,25.07
2022-08-26T16:37:54.043Z,25.07
2022-08-26T16:41:01.856Z,24.87
2022-08-26T16:44:10.094Z,24.90
2022-08-26T16:47:17.596Z,24.95
2022-08-26T16:50:25.368Z,25.05
2022-08-26T16:53:32.850Z,25.25
2022-08-26T16:56:40.548Z,25.35
2022-08-26T16:59:48.751Z,25.43
2022-08-26T17:02:56.757Z,25.50
2022-08-26T17:06:04.642Z,25.46
2022-08-26T17:09:12.955Z,25.39
2022-08-26T17:12:20.857Z,25.24
2022-08-26T17:15:28.683Z,25.15
2022-08-26T17:18:36.578Z,25.09
2022-08-26T17:21:44.671Z,25.12
2022-08-26T17:24:52.689Z,25.12
2022-08-26T17:28:01.332Z,25.12
2022-08-26T17:31:09.366Z,25.05
2022-08-26T17:34:17.413Z,25.07
2022-08-26T17:37:25.428Z,25.12
2022-08-26T17:40:33.291Z,25.10
2022-08-26T17:43:41.074Z,24.97
2022-08-26T17:46:49.263Z,24.73
2022-08-26T17:49:57.096Z,24.59
2022-08-26T17:53:04.923Z,24.52
2022-08-26T17:56:13.394Z,24.44
2022-08-26T17:59:21.397Z,24.38
2022-08-26T18:05:40.050Z,24.63
2022-08-26T18:08:47.931Z,24.63
2022-08-26T18:11:55.851Z,24.52
2022-08-26T18:15:04.312Z,24.22
2022-08-26T18:18:11.893Z,23.98
2022-08-26T18:21:20.108Z,23.90
2022-08-26T18:24:28.544Z,23.94
2022-08-26T18:27:36.210Z,23.89
2022-08-26T18:30:44.211Z,23.83
2022-08-26T18:33:52.437Z,23.85
2022-08-26T18:36:59.937Z,23.82
2022-08-26T18:40:08.246Z,23.85
2022-08-26T18:43:15.752Z,23.76
2022-08-26T18:46:24.576Z,23.70
2022-08-26T18:49:33.798Z,23.50
2022-08-26T18:52:41.606Z,23.29
2022-08-26T18:55:50.117Z,23.14
2022-08-26T18:58:58.351Z,23.04
2022-08-26T19:02:06.004Z,22.90
2022-08-26T19:05:14.533Z,22.87
2022-08-26T19:08:22.335Z,22.82
2022-08-26T19:11:32.257Z,22.71
2022-08-26T19:14:34.799Z,22.62
2022-08-26T19:17:42.487Z,22.62
2022-08-26T19:20:50.539Z,22.67
2022-08-26T19:23:59.132Z,22.69
2022-08-26T19:27:08.315Z,22.78
2022-08-26T19:30:18.034Z,22.78
2022-08-26T19:33:25.824Z,22.84
2022-08-26T19:36:34.387Z,22.90
2022-08-26T19:39:42.464Z,22.90
2022-08-26T19:42:50.655Z,22.92
2022-08-26T19:45:59.418Z,22.93
2022-08-26T19:49:07.731Z,22.92
2022-08-26T19:52:15.742Z,22.89
2022-08-26T19:55:24.171Z,22.80
2022-08-26T19:58:31.960Z,22.67
2022-08-26T20:01:39.790Z,22.52
2022-08-26T20:04:48.346Z,22.47
2022-08-26T20:07:55.787Z,22.46
2022-08-26T20:11:03.828Z,22.44
2022-08-26T20:14:13.244Z,22.32
2022-08-26T20:17:21.022Z,22.27
2022-08-26T20:20:33.318Z,22.20
2022-08-26T20:23:31.365Z,22.02
2022-08-26T20:26:38.876Z,21.97
2022-08-26T20:29:47.260Z,21.92
2022-08-26T20:32:55.118Z,21.94
2022-08-26T20:36:03.220Z,22.01
2022-08-26T20:39:05.055Z,22.07
2022-08-26T20:42:19.811Z,22.10
2022-08-26T20:45:16.851Z,22.07
2022-08-26T20:48:24.683Z,22.04
2022-08-26T20:51:33.177Z,22.06
2022-08-26T20:54:41.275Z,22.07
2022-08-26T20:57:49.216Z,22.02
2022-08-26T21:00:57.493Z,22.04
2022-08-26T21:04:05.418Z,22.01
2022-08-26T21:07:13.431Z,21.98
2022-08-26T21:10:21.791Z,21.95
2022-08-26T21:13:42.822Z,21.92
2022-08-26T21:16:39.741Z,21.91
2022-08-26T21:19:48.454Z,21.79
2022-08-26T21:22:55.963Z,21.76
2022-08-26T21:26:04.266Z,21.74
2022-08-26T21:29:12.416Z,21.71
2022-08-26T21:32:19.898Z,21.66
2022-08-26T21:35:28.172Z,21.59
2022-08-26T21:38:35.782Z,21.48
2022-08-26T21:41:43.512Z,21.48
2022-08-26T21:44:52.803Z,21.50
2022-08-26T21:48:00.395Z,21.53
2022-08-26T21:51:08.886Z,21.51
2022-08-26T21:54:17.305Z,21.50
2022-08-26T21:57:24.752Z,21.54
2022-08-26T22:00:32.926Z,21.48
2022-08-26T22:03:47.542Z,21.39
2022-08-26T22:06:45.041Z,21.41
2022-08-26T22:09:53.303Z,21.35
2022-08-26T22:13:01.314Z,21.29
2022-08-26T22:16:09.289Z,21.26
2022-08-26T22:19:17.565Z,21.21
2022-08-26T22:22:25.477Z,21.16
2022-08-26T22:25:33.554Z,21.13
2022-08-26T22:28:41.422Z,21.08
2022-08-26T22:31:49.672Z,20.96
2022-08-26T22:34:57.509Z,20.96
2022-08-26T22:38:05.681Z,20.93
2022-08-26T22:41:13.966Z,20.99
2022-08-26T22:44:21.776Z,21.02
2022-08-26T22:47:29.754Z,20.90
2022-08-26T22:50:38.048Z,20.90
2022-08-26T22:53:45.549Z,20.95
2022-08-26T22:56:53.500Z,20.98
2022-08-26T23:00:01.429Z,20.99
2022-08-26T23:03:09.015Z,20.98
2022-08-26T23:06:17.271Z,20.95
2022-08-26T23:09:25.590Z,20.91
2022-08-26T23:12:33.085Z,20.90
2022-08-26T23:15:41.406Z,20.93
2022-08-26T23:18:49.311Z,21.02
2022-08-26T23:21:57.008Z,21.04
2022-08-26T23:25:07.815Z,21.01
2022-08-26T23:28:15.429Z,20.95
2022-08-26T23:31:23.289Z,20.93
2022-08-26T23:34:31.744Z,20.91
2022-08-26T23:37:39.230Z,20.95
2022-08-26T23:40:48.991Z,20.96
2022-08-26T23:44:01.595Z,21.02
2022-08-26T23:47:00.006Z,21.08
2022-08-26T23:50:08.281Z,21.14
2022-08-26T23:53:16.630Z,21.21
2022-08-26T23:56:24.139Z,21.27
2022-08-26T23:59:34.676Z,21.23
